sensor_id;sensor_type;location;lat;lon;timestamp;pressure;altitude;pressure_sealevel;temperature;humidity
10706;BME280;5404;42.656;23.336;2023-02-17T00:00:04;95772.41;;;1.26;100.00
10706;BME280;5404;42.656;23.336;2023-02-17T00:02:30;95777.84;;;1.25;100.00
10706;BME280;5404;42.656;23.336;2023-02-17T00:04:55;95781.91;;;1.20;100.00
10706;BME280;5404;42.656;23.336;2023-02-17T00:07:21;95776.06;;;1.25;100.00
10706;BME280;5404;42.656;23.336;2023-02-17T00:09:46;95784.91;;;1.24;100.00
10706;BME280;5404;42.656;23.336;2023-02-17T00:12:12;95776.88;;;1.19;100.00
10706;BME280;5404;42.656;23.336;2023-02-17T00:14:40;95774.09;;;1.14;100.00
10706;BME280;5404;42.656;23.336;2023-02-17T00:17:05;95773.75;;;1.04;100.00
10706;BME280;5404;42.656;23.336;2023-02-17T00:19:31;95733.75;;;0.84;100.00
10706;BME280;5404;42.656;23.336;2023-02-17T00:22:00;95760.44;;;1.05;100.00
10706;BME280;5404;42.656;23.336;2023-02-17T00:24:30;95768.13;;;1.00;100.00
10706;BME280;5404;42.656;23.336;2023-02-17T00:26:56;95768.28;;;1.05;100.00
10706;BME280;5404;42.656;23.336;2023-02-17T00:29:22;95766.06;;;1.09;100.00
10706;BME280;5404;42.656;23.336;2023-02-17T00:31:47;95768.91;;;1.07;100.00
10706;BME280;5404;42.656;23.336;2023-02-17T00:34:15;95765.63;;;1.12;100.00
10706;BME280;5404;42.656;23.336;2023-02-17T00:36:41;95753.97;;;1.08;100.00
10706;BME280;5404;42.656;23.336;2023-02-17T00:39:06;95744.09;;;1.03;100.00
10706;BME280;5404;42.656;23.336;2023-02-17T00:41:32;95740.84;;;1.08;100.00
10706;BME280;5404;42.656;23.336;2023-02-17T00:43:58;95752.88;;;1.15;100.00
10706;BME280;5404;42.656;23.336;2023-02-17T00:46:24;95728.63;;;1.20;100.00
10706;BME280;5404;42.656;23.336;2023-02-17T00:48:50;95732.59;;;1.29;100.00
10706;BME280;5404;42.656;23.336;2023-02-17T00:51:16;95718.09;;;1.27;100.00
10706;BME280;5404;42.656;23.336;2023-02-17T00:53:42;95722.16;;;1.23;100.00
10706;BME280;5404;42.656;23.336;2023-02-17T00:56:09;95736.47;;;1.27;100.00
10706;BME280;5404;42.656;23.336;2023-02-17T00:58:35;95746.69;;;1.10;100.00
10706;BME280;5404;42.656;23.336;2023-02-17T01:01:01;95733.47;;;0.92;100.00
10706;BME280;5404;42.656;23.336;2023-02-17T01:03:27;95735.38;;;0.78;100.00
10706;BME280;5404;42.656;23.336;2023-02-17T01:05:54;95740.88;;;0.70;100.00
10706;BME280;5404;42.656;23.336;2023-02-17T01:08:20;95710.72;;;0.48;100.00
10706;BME280;5404;42.656;23.336;2023-02-17T01:10:47;95740.88;;;0.64;100.00
10706;BME280;5404;42.656;23.336;2023-02-17T01:13:13;95729.44;;;0.58;100.00
10706;BME280;5404;42.656;23.336;2023-02-17T01:15:48;95747.16;;;0.63;100.00
10706;BME280;5404;42.656;23.336;2023-02-17T01:18:14;95745.97;;;0.59;100.00
10706;BME280;5404;42.656;23.336;2023-02-17T01:20:40;95738.31;;;0.57;100.00
10706;BME280;5404;42.656;23.336;2023-02-17T01:23:07;95744.31;;;0.64;100.00
10706;BME280;5404;42.656;23.336;2023-02-17T01:25:44;95733.41;;;0.74;100.00
10706;BME280;5404;42.656;23.336;2023-02-17T01:28:14;95732.38;;;0.75;100.00
10706;BME280;5404;42.656;23.336;2023-02-17T01:30:39;95725.44;;;0.87;100.00
10706;BME280;5404;42.656;23.336;2023-02-17T01:33:05;95703.91;;;0.78;100.00
10706;BME280;5404;42.656;23.336;2023-02-17T01:35:32;95721.94;;;0.93;100.00
10706;BME280;5404;42.656;23.336;2023-02-17T01:37:58;95730.84;;;0.92;100.00
10706;BME280;5404;42.656;23.336;2023-02-17T01:40:24;95715.97;;;0.86;100.00
10706;BME280;5404;42.656;23.336;2023-02-17T01:42:50;95708.66;;;0.88;100.00
10706;BME280;5404;42.656;23.336;2023-02-17T01:47:54;95723.25;;;0.84;100.00
10706;BME280;5404;42.656;23.336;2023-02-17T01:50:24;95726.09;;;0.76;100.00
10706;BME280;5404;42.656;23.336;2023-02-17T01:52:53;95714.06;;;0.68;100.00
10706;BME280;5404;42.656;23.336;2023-02-17T01:55:19;95729.03;;;0.61;100.00
10706;BME280;5404;42.656;23.336;2023-02-17T01:57:46;95730.41;;;0.64;100.00
10706;BME280;5404;42.656;23.336;2023-02-17T02:00:14;95726.00;;;0.58;100.00
10706;BME280;5404;42.656;23.336;2023-02-17T02:02:45;95715.78;;;0.50;100.00
10706;BME280;5404;42.656;23.336;2023-02-17T02:05:11;95723.44;;;0.51;100.00
10706;BME280;5404;42.656;23.336;2023-02-17T02:07:40;95729.88;;;0.49;100.00
10706;BME280;5404;42.656;23.336;2023-02-17T02:10:08;95713.78;;;0.45;100.00
10706;BME280;5404;42.656;23.336;2023-02-17T02:12:37;95732.72;;;0.47;100.00
10706;BME280;5404;42.656;23.336;2023-02-17T02:15:25;95714.97;;;0.49;100.00
10706;BME280;5404;42.656;23.336;2023-02-17T02:18:01;95736.38;;;0.46;100.00
10706;BME280;5404;42.656;23.336;2023-02-17T02:35:27;95727.97;;;0.25;100.00
10706;BME280;5404;42.656;23.336;2023-02-17T02:38:14;95731.97;;;0.34;100.00
10706;BME280;5404;42.656;23.336;2023-02-17T02:40:47;95725.31;;;0.38;100.00
10706;BME280;5404;42.656;23.336;2023-02-17T02:43:15;95681.22;;;0.22;100.00
10706;BME280;5404;42.656;23.336;2023-02-17T02:45:41;95721.03;;;0.50;100.00
10706;BME280;5404;42.656;23.336;2023-02-17T02:48:07;95719.75;;;0.59;100.00
10706;BME280;5404;42.656;23.336;2023-02-17T02:58:37;95727.78;;;0.64;100.00
10706;BME280;5404;42.656;23.336;2023-02-17T03:01:12;95718.50;;;0.68;100.00
10706;BME280;5404;42.656;23.336;2023-02-17T03:06:38;95727.06;;;0.50;100.00
10706;BME280;5404;42.656;23.336;2023-02-17T03:09:10;95718.00;;;0.46;100.00
10706;BME280;5404;42.656;23.336;2023-02-17T03:11:38;95729.91;;;0.42;100.00
10706;BME280;5404;42.656;23.336;2023-02-17T03:14:16;95712.78;;;0.40;100.00
10706;BME280;5404;42.656;23.336;2023-02-17T03:16:42;95722.69;;;0.31;100.00
10706;BME280;5404;42.656;23.336;2023-02-17T03:19:09;95721.28;;;0.35;100.00
10706;BME280;5404;42.656;23.336;2023-02-17T03:22:00;95723.53;;;0.25;100.00
10706;BME280;5404;42.656;23.336;2023-02-17T03:24:29;95728.53;;;0.33;100.00
10706;BME280;5404;42.656;23.336;2023-02-17T03:26:55;95734.00;;;0.32;100.00
10706;BME280;5404;42.656;23.336;2023-02-17T03:29:20;95717.47;;;0.31;100.00
10706;BME280;5404;42.656;23.336;2023-02-17T03:31:46;95680.13;;;-0.02;100.00
10706;BME280;5404;42.656;23.336;2023-02-17T03:34:11;95735.22;;;0.23;100.00
10706;BME280;5404;42.656;23.336;2023-02-17T03:36:37;95731.66;;;0.17;100.00
10706;BME280;5404;42.656;23.336;2023-02-17T03:39:02;95712.34;;;-0.02;100.00
10706;BME280;5404;42.656;23.336;2023-02-17T03:41:28;95726.66;;;0.03;100.00
10706;BME280;5404;42.656;23.336;2023-02-17T03:43:53;95709.94;;;-0.03;100.00
10706;BME280;5404;42.656;23.336;2023-02-17T03:46:18;95720.03;;;0.00;100.00
10706;BME280;5404;42.656;23.336;2023-02-17T03:48:44;95631.19;;;-0.72;100.00
10706;BME280;5404;42.656;23.336;2023-02-17T03:51:15;95716.81;;;-0.15;100.00
10706;BME280;5404;42.656;23.336;2023-02-17T03:53:41;95725.06;;;-0.12;100.00
10706;BME280;5404;42.656;23.336;2023-02-17T03:56:08;95711.38;;;-0.14;100.00
10706;BME280;5404;42.656;23.336;2023-02-17T03:58:34;95723.03;;;-0.03;100.00
10706;BME280;5404;42.656;23.336;2023-02-17T04:00:59;95727.88;;;0.00;100.00
10706;BME280;5404;42.656;23.336;2023-02-17T04:03:25;95730.47;;;0.07;100.00
10706;BME280;5404;42.656;23.336;2023-02-17T04:05:51;95735.25;;;0.16;100.00
10706;BME280;5404;42.656;23.336;2023-02-17T04:08:16;95726.97;;;0.19;100.00
10706;BME280;5404;42.656;23.336;2023-02-17T04:10:42;95719.50;;;0.23;100.00
10706;BME280;5404;42.656;23.336;2023-02-17T04:13:09;95732.41;;;0.31;100.00
10706;BME280;5404;42.656;23.336;2023-02-17T04:15:34;95732.56;;;0.36;100.00
10706;BME280;5404;42.656;23.336;2023-02-17T04:18:00;95735.97;;;0.36;100.00
10706;BME280;5404;42.656;23.336;2023-02-17T04:20:25;95731.72;;;0.42;100.00
10706;BME280;5404;42.656;23.336;2023-02-17T04:22:50;95720.03;;;0.44;100.00
10706;BME280;5404;42.656;23.336;2023-02-17T04:25:16;95716.59;;;0.44;100.00
10706;BME280;5404;42.656;23.336;2023-02-17T04:27:41;95717.81;;;0.48;100.00
10706;BME280;5404;42.656;23.336;2023-02-17T04:30:07;95717.00;;;0.47;100.00
10706;BME280;5404;42.656;23.336;2023-02-17T04:32:33;95729.88;;;0.49;100.00
10706;BME280;5404;42.656;23.336;2023-02-17T04:34:58;95729.66;;;0.50;100.00
10706;BME280;5404;42.656;23.336;2023-02-17T04:37:24;95734.13;;;0.50;100.00
10706;BME280;5404;42.656;23.336;2023-02-17T04:39:49;95723.09;;;0.41;100.00
10706;BME280;5404;42.656;23.336;2023-02-17T04:42:14;95729.31;;;0.40;100.00
10706;BME280;5404;42.656;23.336;2023-02-17T04:44:40;95738.00;;;0.41;100.00
10706;BME280;5404;42.656;23.336;2023-02-17T04:47:05;95748.13;;;0.31;100.00
10706;BME280;5404;42.656;23.336;2023-02-17T04:49:31;95731.19;;;0.27;100.00
10706;BME280;5404;42.656;23.336;2023-02-17T04:51:56;95738.91;;;0.15;100.00
10706;BME280;5404;42.656;23.336;2023-02-17T04:54:22;95738.09;;;0.15;100.00
10706;BME280;5404;42.656;23.336;2023-02-17T04:56:47;95743.75;;;0.12;100.00
10706;BME280;5404;42.656;23.336;2023-02-17T04:59:12;95728.47;;;0.09;100.00
10706;BME280;5404;42.656;23.336;2023-02-17T05:01:38;95742.72;;;0.13;100.00
10706;BME280;5404;42.656;23.336;2023-02-17T05:04:03;95732.50;;;0.05;100.00
10706;BME280;5404;42.656;23.336;2023-02-17T05:06:29;95728.47;;;0.02;100.00
10706;BME280;5404;42.656;23.336;2023-02-17T05:08:55;95750.19;;;0.09;100.00
10706;BME280;5404;42.656;23.336;2023-02-17T05:11:20;95750.97;;;0.16;100.00
10706;BME280;5404;42.656;23.336;2023-02-17T05:13:46;95750.78;;;0.18;100.00
10706;BME280;5404;42.656;23.336;2023-02-17T05:16:11;95753.38;;;0.24;100.00
10706;BME280;5404;42.656;23.336;2023-02-17T05:18:37;95758.44;;;0.26;100.00
10706;BME280;5404;42.656;23.336;2023-02-17T05:21:02;95757.47;;;0.14;100.00
10706;BME280;5404;42.656;23.336;2023-02-17T05:23:28;95761.09;;;0.06;100.00
10706;BME280;5404;42.656;23.336;2023-02-17T05:25:53;95775.00;;;0.07;100.00
10706;BME280;5404;42.656;23.336;2023-02-17T05:28:19;95762.31;;;0.03;100.00
10706;BME280;5404;42.656;23.336;2023-02-17T05:30:47;95767.38;;;0.05;100.00
10706;BME280;5404;42.656;23.336;2023-02-17T05:33:13;95773.00;;;0.09;100.00
10706;BME280;5404;42.656;23.336;2023-02-17T05:35:38;95731.72;;;-0.09;100.00
10706;BME280;5404;42.656;23.336;2023-02-17T05:38:03;95770.31;;;0.22;100.00
10706;BME280;5404;42.656;23.336;2023-02-17T05:40:29;95781.56;;;0.35;100.00
10706;BME280;5404;42.656;23.336;2023-02-17T05:42:54;95782.34;;;0.42;100.00
10706;BME280;5404;42.656;23.336;2023-02-17T05:45:20;95791.63;;;0.45;100.00
10706;BME280;5404;42.656;23.336;2023-02-17T05:47:45;95788.59;;;0.48;100.00
10706;BME280;5404;42.656;23.336;2023-02-17T05:50:11;95787.13;;;0.52;100.00
10706;BME280;5404;42.656;23.336;2023-02-17T05:52:36;95786.53;;;0.56;100.00
10706;BME280;5404;42.656;23.336;2023-02-17T05:55:02;95792.34;;;0.65;100.00
10706;BME280;5404;42.656;23.336;2023-02-17T05:57:29;95790.88;;;0.75;100.00
10706;BME280;5404;42.656;23.336;2023-02-17T05:59:55;95797.31;;;0.79;100.00
10706;BME280;5404;42.656;23.336;2023-02-17T06:02:20;95803.16;;;0.81;100.00
10706;BME280;5404;42.656;23.336;2023-02-17T06:04:46;95798.53;;;0.77;100.00
10706;BME280;5404;42.656;23.336;2023-02-17T06:07:11;95787.19;;;0.83;100.00
10706;BME280;5404;42.656;23.336;2023-02-17T06:09:36;95798.63;;;0.95;100.00
10706;BME280;5404;42.656;23.336;2023-02-17T06:12:02;95782.66;;;1.03;100.00
10706;BME280;5404;42.656;23.336;2023-02-17T06:14:28;95684.16;;;0.45;100.00
10706;BME280;5404;42.656;23.336;2023-02-17T06:16:53;95797.66;;;1.20;100.00
10706;BME280;5404;42.656;23.336;2023-02-17T06:19:21;95791.81;;;1.25;100.00
10706;BME280;5404;42.656;23.336;2023-02-17T06:21:46;95802.41;;;1.37;100.00
10706;BME280;5404;42.656;23.336;2023-02-17T06:24:12;95800.75;;;1.42;100.00
10706;BME280;5404;42.656;23.336;2023-02-17T06:26:37;95795.47;;;1.49;100.00
10706;BME280;5404;42.656;23.336;2023-02-17T06:29:03;95787.84;;;1.65;100.00
10706;BME280;5404;42.656;23.336;2023-02-17T06:31:28;95782.19;;;1.68;100.00
10706;BME280;5404;42.656;23.336;2023-02-17T06:33:54;95798.78;;;1.87;100.00
10706;BME280;5404;42.656;23.336;2023-02-17T06:36:19;95798.28;;;1.96;100.00
10706;BME280;5404;42.656;23.336;2023-02-17T06:38:45;95799.47;;;2.00;100.00
10706;BME280;5404;42.656;23.336;2023-02-17T06:41:10;95779.66;;;1.98;100.00
10706;BME280;5404;42.656;23.336;2023-02-17T06:43:36;95792.63;;;2.17;100.00
10706;BME280;5404;42.656;23.336;2023-02-17T06:46:01;95804.38;;;2.33;100.00
10706;BME280;5404;42.656;23.336;2023-02-17T06:48:26;95795.41;;;2.41;100.00
10706;BME280;5404;42.656;23.336;2023-02-17T06:50:52;95798.19;;;2.46;100.00
10706;BME280;5404;42.656;23.336;2023-02-17T06:53:17;95806.88;;;2.64;100.00
10706;BME280;5404;42.656;23.336;2023-02-17T06:55:43;95796.25;;;2.71;100.00
10706;BME280;5404;42.656;23.336;2023-02-17T06:58:09;95796.91;;;2.84;100.00
10706;BME280;5404;42.656;23.336;2023-02-17T07:00:34;95800.75;;;3.00;100.00
10706;BME280;5404;42.656;23.336;2023-02-17T07:03:00;95802.84;;;3.09;100.00
10706;BME280;5404;42.656;23.336;2023-02-17T07:05:25;95796.31;;;3.12;100.00
10706;BME280;5404;42.656;23.336;2023-02-17T07:07:50;95808.53;;;3.36;100.00
10706;BME280;5404;42.656;23.336;2023-02-17T07:10:17;95795.38;;;3.47;100.00
10706;BME280;5404;42.656;23.336;2023-02-17T07:12:43;95790.28;;;3.64;100.00
10706;BME280;5404;42.656;23.336;2023-02-17T07:15:09;95803.72;;;3.86;100.00
10706;BME280;5404;42.656;23.336;2023-02-17T07:17:34;95798.00;;;4.00;100.00
10706;BME280;5404;42.656;23.336;2023-02-17T07:19:59;95795.69;;;4.15;100.00
10706;BME280;5404;42.656;23.336;2023-02-17T07:22:25;95792.03;;;4.28;100.00
10706;BME280;5404;42.656;23.336;2023-02-17T07:24:51;95799.44;;;4.42;100.00
10706;BME280;5404;42.656;23.336;2023-02-17T07:27:16;95786.13;;;4.49;100.00
10706;BME280;5404;42.656;23.336;2023-02-17T07:29:42;95799.53;;;4.70;100.00
10706;BME280;5404;42.656;23.336;2023-02-17T07:32:07;95798.19;;;4.96;100.00
10706;BME280;5404;42.656;23.336;2023-02-17T07:34:33;95769.13;;;4.96;100.00
10706;BME280;5404;42.656;23.336;2023-02-17T07:36:58;95791.38;;;5.28;100.00
10706;BME280;5404;42.656;23.336;2023-02-17T07:39:24;95779.16;;;5.39;100.00
10706;BME280;5404;42.656;23.336;2023-02-17T07:41:49;95788.41;;;5.53;100.00
10706;BME280;5404;42.656;23.336;2023-02-17T07:44:14;95780.25;;;5.71;100.00
10706;BME280;5404;42.656;23.336;2023-02-17T07:46:40;95693.53;;;5.23;100.00
10706;BME280;5404;42.656;23.336;2023-02-17T07:49:06;95786.22;;;5.95;100.00
10706;BME280;5404;42.656;23.336;2023-02-17T07:51:31;95782.66;;;6.06;100.00
10706;BME280;5404;42.656;23.336;2023-02-17T07:53:57;95773.53;;;6.13;100.00
10706;BME280;5404;42.656;23.336;2023-02-17T07:56:22;95760.91;;;6.20;100.00
10706;BME280;5404;42.656;23.336;2023-02-17T07:58:48;95766.91;;;6.32;100.00
10706;BME280;5404;42.656;23.336;2023-02-17T08:01:17;95775.69;;;6.54;100.00
10706;BME280;5404;42.656;23.336;2023-02-17T08:03:43;95771.06;;;6.66;100.00
10706;BME280;5404;42.656;23.336;2023-02-17T08:06:10;95771.84;;;6.88;100.00
10706;BME280;5404;42.656;23.336;2023-02-17T08:08:36;95768.59;;;7.03;100.00
10706;BME280;5404;42.656;23.336;2023-02-17T08:11:20;95766.16;;;7.23;100.00
10706;BME280;5404;42.656;23.336;2023-02-17T08:14:04;95767.88;;;7.34;100.00
10706;BME280;5404;42.656;23.336;2023-02-17T08:16:31;95773.88;;;7.51;100.00
10706;BME280;5404;42.656;23.336;2023-02-17T08:18:57;95780.41;;;7.70;100.00
10706;BME280;5404;42.656;23.336;2023-02-17T08:21:23;95765.41;;;7.86;100.00
10706;BME280;5404;42.656;23.336;2023-02-17T08:23:49;95769.50;;;8.03;100.00
10706;BME280;5404;42.656;23.336;2023-02-17T08:26:14;95759.78;;;8.19;100.00
10706;BME280;5404;42.656;23.336;2023-02-17T08:28:42;95737.59;;;8.25;100.00
10706;BME280;5404;42.656;23.336;2023-02-17T08:31:17;95760.34;;;8.63;100.00
10706;BME280;5404;42.656;23.336;2023-02-17T08:33:43;95748.69;;;8.74;100.00
10706;BME280;5404;42.656;23.336;2023-02-17T08:36:08;95750.13;;;8.96;100.00
10706;BME280;5404;42.656;23.336;2023-02-17T08:38:34;95747.50;;;9.06;100.00
10706;BME280;5404;42.656;23.336;2023-02-17T08:41:00;95750.75;;;9.23;100.00
10706;BME280;5404;42.656;23.336;2023-02-17T08:43:25;95741.19;;;9.42;100.00
10706;BME280;5404;42.656;23.336;2023-02-17T08:45:50;95748.13;;;9.64;100.00
10706;BME280;5404;42.656;23.336;2023-02-17T08:48:16;95746.00;;;9.91;100.00
10706;BME280;5404;42.656;23.336;2023-02-17T08:50:41;95736.72;;;10.08;100.00
10706;BME280;5404;42.656;23.336;2023-02-17T08:53:07;95741.75;;;10.35;99.31
10706;BME280;5404;42.656;23.336;2023-02-17T08:55:33;95743.03;;;10.47;96.60
10706;BME280;5404;42.656;23.336;2023-02-17T08:57:59;95742.16;;;10.72;95.34
10706;BME280;5404;42.656;23.336;2023-02-17T09:00:24;95738.78;;;11.15;93.55
10706;BME280;5404;42.656;23.336;2023-02-17T09:02:50;95742.78;;;12.81;83.76
10706;BME280;5404;42.656;23.336;2023-02-17T09:05:15;95724.88;;;15.52;68.80
10706;BME280;5404;42.656;23.336;2023-02-17T09:07:41;95724.78;;;18.69;55.00
10706;BME280;5404;42.656;23.336;2023-02-17T09:10:09;95710.78;;;21.90;40.17
10706;BME280;5404;42.656;23.336;2023-02-17T09:12:35;95709.25;;;24.03;33.70
10706;BME280;5404;42.656;23.336;2023-02-17T09:15:00;95707.75;;;25.80;30.37
10706;BME280;5404;42.656;23.336;2023-02-17T09:17:25;95707.78;;;27.19;28.67
10706;BME280;5404;42.656;23.336;2023-02-17T09:19:51;95709.38;;;28.36;26.05
10706;BME280;5404;42.656;23.336;2023-02-17T09:22:16;95702.81;;;27.83;24.62
10706;BME280;5404;42.656;23.336;2023-02-17T09:24:44;95709.16;;;27.94;24.79
10706;BME280;5404;42.656;23.336;2023-02-17T09:27:10;95708.03;;;28.02;24.04
10706;BME280;5404;42.656;23.336;2023-02-17T09:29:37;95718.03;;;27.77;24.41
10706;BME280;5404;42.656;23.336;2023-02-17T09:32:07;95705.66;;;28.00;23.99
10706;BME280;5404;42.656;23.336;2023-02-17T09:34:37;95706.50;;;28.08;22.39
10706;BME280;5404;42.656;23.336;2023-02-17T09:37:03;95700.16;;;27.39;21.35
10706;BME280;5404;42.656;23.336;2023-02-17T09:39:29;95702.75;;;25.89;22.01
10706;BME280;5404;42.656;23.336;2023-02-17T09:41:54;95698.22;;;25.44;22.48
10706;BME280;5404;42.656;23.336;2023-02-17T09:44:25;95704.97;;;25.05;22.03
10706;BME280;5404;42.656;23.336;2023-02-17T09:47:04;95709.13;;;25.21;22.44
10706;BME280;5404;42.656;23.336;2023-02-17T09:49:44;95709.38;;;25.35;21.96
10706;BME280;5404;42.656;23.336;2023-02-17T09:55:00;95674.78;;;25.40;22.39
10706;BME280;5404;42.656;23.336;2023-02-17T09:57:33;95692.53;;;26.08;21.28
10706;BME280;5404;42.656;23.336;2023-02-17T10:00:07;95696.88;;;25.34;21.68
10706;BME280;5404;42.656;23.336;2023-02-17T10:03:04;95694.13;;;24.86;21.74
10706;BME280;5404;42.656;23.336;2023-02-17T10:05:37;95686.13;;;24.96;21.99
10706;BME280;5404;42.656;23.336;2023-02-17T10:08:16;95688.41;;;25.40;21.82
10706;BME280;5404;42.656;23.336;2023-02-17T10:10:49;95691.84;;;25.59;21.66
10706;BME280;5404;42.656;23.336;2023-02-17T10:13:19;95680.66;;;25.68;21.57
10706;BME280;5404;42.656;23.336;2023-02-17T10:15:50;95682.00;;;26.43;21.14
10706;BME280;5404;42.656;23.336;2023-02-17T10:18:23;95689.59;;;26.24;20.56
10706;BME280;5404;42.656;23.336;2023-02-17T10:21:03;95656.28;;;25.85;20.98
10706;BME280;5404;42.656;23.336;2023-02-17T10:23:32;95688.97;;;25.78;20.65
10706;BME280;5404;42.656;23.336;2023-02-17T10:28:48;95665.38;;;26.22;20.27
10706;BME280;5404;42.656;23.336;2023-02-17T10:34:04;95653.84;;;25.77;20.53
10706;BME280;5404;42.656;23.336;2023-02-17T10:41:36;95644.69;;;24.46;21.00
10706;BME280;5404;42.656;23.336;2023-02-17T10:44:10;95655.94;;;23.49;22.31
10706;BME280;5404;42.656;23.336;2023-02-17T10:46:39;95642.28;;;23.99;22.00
10706;BME280;5404;42.656;23.336;2023-02-17T10:49:21;95651.06;;;23.39;22.10
10706;BME280;5404;42.656;23.336;2023-02-17T10:51:50;95633.63;;;24.35;21.94
10706;BME280;5404;42.656;23.336;2023-02-17T10:54:26;95641.47;;;24.17;21.78
10706;BME280;5404;42.656;23.336;2023-02-17T10:56:54;95637.50;;;23.96;21.95
10706;BME280;5404;42.656;23.336;2023-02-17T10:59:42;95631.69;;;24.16;21.57
10706;BME280;5404;42.656;23.336;2023-02-17T11:02:32;95629.69;;;24.55;21.64
10706;BME280;5404;42.656;23.336;2023-02-17T11:04:58;95632.25;;;24.67;21.55
10706;BME280;5404;42.656;23.336;2023-02-17T11:07:34;95619.16;;;23.93;21.77
10706;BME280;5404;42.656;23.336;2023-02-17T11:10:02;95641.78;;;23.08;22.88
10706;BME280;5404;42.656;23.336;2023-02-17T11:12:41;95637.16;;;22.93;22.79
10706;BME280;5404;42.656;23.336;2023-02-17T11:15:16;95633.16;;;23.06;22.96
10706;BME280;5404;42.656;23.336;2023-02-17T11:17:43;95630.97;;;23.28;23.09
10706;BME280;5404;42.656;23.336;2023-02-17T11:22:40;95612.47;;;23.33;23.04
10706;BME280;5404;42.656;23.336;2023-02-17T11:25:29;95632.59;;;22.82;23.52
10706;BME280;5404;42.656;23.336;2023-02-17T11:27:58;95612.25;;;22.91;23.50
10706;BME280;5404;42.656;23.336;2023-02-17T11:30:26;95614.59;;;22.46;23.60
10706;BME280;5404;42.656;23.336;2023-02-17T11:32:52;95609.44;;;22.72;23.63
10706;BME280;5404;42.656;23.336;2023-02-17T11:38:03;95603.81;;;22.50;23.66
10706;BME280;5404;42.656;23.336;2023-02-17T11:40:34;95607.31;;;22.35;24.38
10706;BME280;5404;42.656;23.336;2023-02-17T11:43:01;95606.03;;;21.34;24.95
10706;BME280;5404;42.656;23.336;2023-02-17T11:45:54;95612.84;;;21.04;25.71
10706;BME280;5404;42.656;23.336;2023-02-17T11:50:52;95608.78;;;20.98;26.39
10706;BME280;5404;42.656;23.336;2023-02-17T11:56:22;95604.59;;;20.88;26.38
10706;BME280;5404;42.656;23.336;2023-02-17T12:20:50;95566.56;;;19.92;27.89
10706;BME280;5404;42.656;23.336;2023-02-17T12:26:13;95567.97;;;19.44;28.52
10706;BME280;5404;42.656;23.336;2023-02-17T12:34:24;95540.66;;;18.09;30.26
10706;BME280;5404;42.656;23.336;2023-02-17T12:36:56;95544.97;;;18.01;30.49
10706;BME280;5404;42.656;23.336;2023-02-17T12:42:08;95544.75;;;17.60;31.56
10706;BME280;5404;42.656;23.336;2023-02-17T12:44:55;95538.09;;;17.32;31.69
10706;BME280;5404;42.656;23.336;2023-02-17T12:50:18;95537.34;;;16.97;32.30
10706;BME280;5404;42.656;23.336;2023-02-17T12:52:47;95526.09;;;16.70;32.34
10706;BME280;5404;42.656;23.336;2023-02-17T12:58:11;95531.44;;;16.61;32.84
10706;BME280;5404;42.656;23.336;2023-02-17T13:00:45;95522.72;;;16.56;32.82
10706;BME280;5404;42.656;23.336;2023-02-17T13:03:13;95524.41;;;16.43;33.27
10706;BME280;5404;42.656;23.336;2023-02-17T13:06:03;95528.66;;;16.35;33.31
10706;BME280;5404;42.656;23.336;2023-02-17T13:08:57;95527.72;;;16.31;33.68
10706;BME280;5404;42.656;23.336;2023-02-17T13:11:41;95532.00;;;16.41;33.51
10706;BME280;5404;42.656;23.336;2023-02-17T13:14:25;95530.59;;;16.44;33.65
10706;BME280;5404;42.656;23.336;2023-02-17T13:16:52;95525.56;;;16.51;33.45
10706;BME280;5404;42.656;23.336;2023-02-17T13:19:35;95525.59;;;16.68;33.66
10706;BME280;5404;42.656;23.336;2023-02-17T13:22:01;95523.41;;;16.78;33.43
10706;BME280;5404;42.656;23.336;2023-02-17T13:27:18;95532.25;;;16.96;32.59
10706;BME280;5404;42.656;23.336;2023-02-17T13:29:44;95524.19;;;16.96;32.31
10706;BME280;5404;42.656;23.336;2023-02-17T13:32:11;95513.13;;;17.06;32.04
10706;BME280;5404;42.656;23.336;2023-02-17T13:34:39;95514.38;;;17.08;31.62
10706;BME280;5404;42.656;23.336;2023-02-17T13:37:23;95514.84;;;16.93;31.72
10706;BME280;5404;42.656;23.336;2023-02-17T13:39:49;95522.13;;;16.76;31.77
10706;BME280;5404;42.656;23.336;2023-02-17T13:42:51;95517.88;;;17.00;31.69
10706;BME280;5404;42.656;23.336;2023-02-17T13:45:32;95506.59;;;17.07;31.31
10706;BME280;5404;42.656;23.336;2023-02-17T13:48:09;95518.34;;;17.11;30.71
10706;BME280;5404;42.656;23.336;2023-02-17T13:50:48;95512.94;;;17.19;30.40
10706;BME280;5404;42.656;23.336;2023-02-17T13:53:29;95511.66;;;17.34;30.26
10706;BME280;5404;42.656;23.336;2023-02-17T13:56:01;95507.72;;;17.31;29.90
10706;BME280;5404;42.656;23.336;2023-02-17T13:58:30;95518.94;;;17.42;29.68
10706;BME280;5404;42.656;23.336;2023-02-17T14:00:57;95517.34;;;17.32;29.87
10706;BME280;5404;42.656;23.336;2023-02-17T14:03:28;95514.50;;;17.46;29.75
10706;BME280;5404;42.656;23.336;2023-02-17T14:06:00;95507.25;;;17.21;28.53
10706;BME280;5404;42.656;23.336;2023-02-17T14:08:35;95499.94;;;16.96;28.58
10706;BME280;5404;42.656;23.336;2023-02-17T14:13:34;95512.31;;;17.14;28.76
10706;BME280;5404;42.656;23.336;2023-02-17T14:16:00;95504.56;;;17.04;28.41
10706;BME280;5404;42.656;23.336;2023-02-17T14:18:32;95507.72;;;16.89;29.01
10706;BME280;5404;42.656;23.336;2023-02-17T14:21:23;95517.22;;;16.95;29.42
10706;BME280;5404;42.656;23.336;2023-02-17T14:23:50;95516.09;;;16.87;29.77
10706;BME280;5404;42.656;23.336;2023-02-17T14:26:37;95520.22;;;16.85;30.26
10706;BME280;5404;42.656;23.336;2023-02-17T14:29:05;95518.94;;;16.74;30.51
10706;BME280;5404;42.656;23.336;2023-02-17T14:31:41;95520.63;;;16.44;31.27
10706;BME280;5404;42.656;23.336;2023-02-17T14:36:49;95533.59;;;15.64;32.65
10706;BME280;5404;42.656;23.336;2023-02-17T14:39:15;95527.53;;;15.58;32.96
10706;BME280;5404;42.656;23.336;2023-02-17T14:41:41;95532.19;;;15.66;33.61
10706;BME280;5404;42.656;23.336;2023-02-17T14:44:07;95500.56;;;15.63;33.47
10706;BME280;5404;42.656;23.336;2023-02-17T14:46:33;95521.88;;;15.90;33.53